Data for 05/19/2017

Time Sea-Level Adjusted Pressure Absolute Pressure Temperature Relative Humidity Dew Point   
(mb) (inHg) (mb) (inHg) (C) (F) (%) (C) (F)
00:05 1022 30.18 851 25.13 3.3 38 66 -2.4 27.7
00:10 1022 30.18 851 25.13 3.3 37.9 67 -2.3 27.8
00:15 1022 30.18 851 25.13 3.1 37.7 67 -2.4 27.6
00:20 1022 30.18 851 25.13 3 37.5 67 -2.4 27.7
00:25 1022 30.18 851 25.13 3.1 37.5 66 -2.6 27.4
00:30 1022 30.18 851 25.13 3.1 37.5 67 -2.4 27.7
00:35 1022 30.18 851 25.13 2.9 37.3 67 -2.6 27.4
00:40 1022 30.18 851 25.13 3 37.3 67 -2.5 27.5
00:45 1022 30.18 851 25.13 2.8 37.1 68 -2.5 27.5
00:50 1022 30.18 851 25.13 2.8 37 68 -2.5 27.5
00:55 1022 30.18 851 25.13 2.7 36.9 68 -2.6 27.3
01:00 1022 30.18 851 25.13 2.9 37.2 67 -2.7 27.1
01:05 1022 30.18 851 25.13 3 37.5 66 -2.7 27.1
01:10 1022 30.18 851 25.13 3 37.5 67 -2.6 27.4
01:15 1022 30.18 851 25.13 2.9 37.3 67 -2.6 27.3
01:20 1022 30.18 851 25.13 2.9 37.3 67 -2.6 27.3
01:25 1022 30.18 851 25.13 2.9 37.2 67 -2.6 27.2
01:30 1022 30.18 851 25.13 2.8 37 67 -2.7 27.2
01:35 1022 30.18 851 25.13 2.8 37.1 67 -2.7 27.1
01:40 1022 30.18 851 25.13 2.9 37.2 67 -2.6 27.3
01:45 1022 30.18 851 25.13 2.8 37.1 67 -2.8 27
01:50 1022 30.18 851 25.13 2.8 37 68 -2.6 27.3
01:55 1022 30.18 851 25.13 2.7 36.8 69 -2.5 27.5
02:00 1021 30.15 851 25.13 2.7 36.8 68 -2.5 27.4
02:05 1021 30.15 851 25.13 2.6 36.7 69 -2.5 27.5
02:10 1021 30.15 851 25.13 2.5 36.5 69 -2.5 27.4
02:15 1021 30.15 851 25.13 2.3 36.2 70 -2.6 27.4
02:20 1021 30.15 851 25.13 2.3 36.1 70 -2.6 27.4
02:25 1021 30.15 851 25.13 2.3 36.1 71 -2.5 27.4
02:30 1021 30.15 851 25.13 2.2 35.9 70 -2.7 27.2
02:35 1021 30.15 851 25.13 2.2 36 71 -2.6 27.4
02:40 1021 30.15 851 25.13 2.1 35.8 71 -2.6 27.4
02:45 1021 30.15 851 25.13 2.2 35.9 71 -2.6 27.4
02:50 1021 30.15 851 25.13 2.2 35.9 71 -2.5 27.4
02:55 1021 30.15 851 25.13 2.1 35.8 71 -2.6 27.4
03:00 1021 30.15 851 25.13 2.2 35.9 71 -2.5 27.5
03:05 1021 30.15 851 25.13 2.1 35.8 72 -2.5 27.6
03:10 1021 30.15 851 25.13 2.1 35.8 72 -2.5 27.6
03:15 1021 30.15 851 25.13 2.1 35.7 72 -2.4 27.6
03:20 1021 30.15 851 25.13 2 35.5 73 -2.5 27.6
03:25 1022 30.18 851 25.13 1.9 35.4 73 -2.5 27.6
03:30 1022 30.18 851 25.13 1.7 35.1 74 -2.4 27.6
03:35 1022 30.18 851 25.13 1.5 34.7 75 -2.4 27.6
03:40 1022 30.18 851 25.13 1.2 34.2 76 -2.5 27.4
03:45 1021 30.15 851 25.13 1.1 34 76 -2.7 27.2
03:50 1021 30.15 851 25.13 1.1 34 76 -2.7 27.2
03:55 1021 30.15 851 25.13 1.1 33.9 76 -2.7 27.2
04:00 1021 30.15 851 25.13 1.1 34 76 -2.7 27.2
04:05 1021 30.15 851 25.13 1.1 33.9 77 -2.6 27.3
04:10 1021 30.15 851 25.13 0.9 33.7 77 -2.6 27.3
04:15 1021 30.15 851 25.13 0.8 33.4 78 -2.6 27.2
04:20 1021 30.15 851 25.13 0.5 33 79 -2.7 27.1
04:25 1021 30.15 851 25.13 0.4 32.7 79 -2.8 26.9
04:30 1021 30.15 851 25.13 0.4 32.7 78 -2.9 26.8
04:35 1021 30.15 851 25.13 0.5 32.8 78 -2.9 26.8
04:40 1021 30.15 851 25.13 0.5 33 78 -2.8 26.9
04:45 1021 30.15 851 25.13 0.6 33 78 -2.8 27
04:50 1021 30.15 851 25.13 0.6 33.1 78 -2.7 27.1
04:55 1021 30.15 851 25.13 0.6 33.1 78 -2.7 27.1
05:00 1021 30.15 851 25.13 0.6 33.1 78 -2.7 27.1
05:05 1021 30.15 851 25.13 0.6 33 78 -2.8 26.9
05:10 1021 30.15 851 25.13 0.6 33 78 -2.8 26.9
05:15 1021 30.15 851 25.13 0.7 33.3 77 -2.8 26.9
05:20 1021 30.15 851 25.13 0.7 33.3 77 -2.9 26.8
05:25 1021 30.15 851 25.13 0.3 32.5 78 -3.1 26.4
05:30 1021 30.15 851 25.13 0.3 32.6 77 -3.2 26.2
05:35 1021 30.15 850 25.1 0.3 32.6 77 -3.2 26.3
05:40 1021 30.15 851 25.13 0.3 32.5 77 -3.2 26.2
05:45 1021 30.15 851 25.13 0.3 32.5 77 -3.3 26.1
05:50 1021 30.15 851 25.13 0.5 32.8 76 -3.3 26.1
05:55 1021 30.15 851 25.13 0.6 33 76 -3.3 26.1
06:00 1021 30.15 851 25.13 0.7 33.3 75 -3.2 26.3
06:05 1021 30.15 851 25.13 0.8 33.4 75 -3.2 26.2
06:10 1021 30.15 851 25.13 0.8 33.4 75 -3.2 26.3
06:15 1021 30.15 851 25.13 0.8 33.4 75 -3.2 26.2
06:20 1021 30.15 851 25.13 0.9 33.6 75 -3.1 26.4
06:25 1021 30.15 851 25.13 0.8 33.4 75 -3.1 26.5
06:30 1021 30.15 851 25.13 0.8 33.5 75 -3.1 26.4
06:35 1021 30.15 851 25.13 1 33.8 74 -3 26.5
06:40 1021 30.15 851 25.13 1.3 34.4 73 -3 26.5
06:45 1021 30.15 851 25.13 1.8 35.3 71 -2.9 26.8
06:50 1022 30.18 851 25.13 2.2 36 70 -2.7 27.2
06:55 1022 30.18 851 25.13 2.6 36.7 68 -2.7 27.1
07:00 1022 30.18 851 25.13 2.9 37.3 67 -2.5 27.5
07:05 1022 30.18 851 25.13 3.3 37.9 67 -2.3 27.9
07:10 1022 30.18 851 25.13 4.1 39.3 63 -2.3 27.9
07:15 1022 30.18 851 25.13 4.5 40 62 -2.1 28.2
07:20 1021 30.15 851 25.13 4.7 40.4 61 -2.3 27.9
07:25 1022 30.18 851 25.13 5 41 61 -1.9 28.6
07:30 1022 30.18 851 25.13 5.5 42 58 -2.1 28.3
07:35 1022 30.18 851 25.13 5.7 42.2 59 -1.6 29.1
07:40 1022 30.18 851 25.13 6 42.8 59 -1.3 29.6
07:45 1022 30.18 851 25.13 6 42.8 59 -1.5 29.3
07:50 1022 30.18 851 25.13 5.7 42.3 58 -2 28.4
07:55 1022 30.18 851 25.13 5.7 42.3 60 -1.5 29.4
08:00 1022 30.18 851 25.13 5.6 42 58 -2 28.3
08:05 1022 30.18 851 25.13 6.2 43.1 56 -1.9 28.7
08:10 1022 30.18 851 25.13 6.7 44.1 54 -1.9 28.5
08:15 1022 30.18 851 25.13 7.7 45.8 52 -1.6 29.1
08:20 1022 30.18 851 25.13 7.1 44.9 53 -1.9 28.7
08:25 1022 30.18 851 25.13 7.1 44.8 50 -2.6 27.3
08:30 1022 30.18 851 25.13 7.1 44.8 52 -2.1 28.3
08:35 1022 30.18 851 25.13 7.4 45.3 50 -2.4 27.7
08:40 1022 30.18 851 25.13 8.2 46.7 46 -2.8 27
08:45 1022 30.18 851 25.13 8.7 47.6 44 -2.8 26.9
08:50 1022 30.18 851 25.13 8.5 47.3 46 -2.3 27.8
08:55 1022 30.18 851 25.13 8.4 47.1 44 -3.2 26.3
09:00 1022 30.18 851 25.13 7.9 46.2 45 -3.3 26
09:05 1021 30.15 851 25.13 7.8 46 45 -3.3 26
09:10 1021 30.15 851 25.13 7.9 46.2 45 -3.2 26.3
09:15 1021 30.15 851 25.13 8.2 46.8 43 -3.6 25.5
09:20 1021 30.15 851 25.13 8.8 47.8 41 -3.8 25.2
09:25 1022 30.18 851 25.13 8.7 47.6 42 -3.6 25.5
09:30 1022 30.18 851 25.13 9.2 48.6 40 -3.7 25.3
09:35 1021 30.15 851 25.13 9.6 49.2 40 -3.3 26
09:40 1021 30.15 851 25.13 9.9 49.8 39 -3.4 25.9
09:45 1021 30.15 851 25.13 9.6 49.3 41 -3 26.6
09:50 1021 30.15 851 25.13 9.8 49.7 40 -3 26.5
09:55 1021 30.15 851 25.13 10.7 51.3 37 -3.3 26.1
10:00 1022 30.18 851 25.13 9.9 49.7 41 -2.6 27.2
10:05 1022 30.18 851 25.13 9.5 49 38 -4 24.8
10:10 1021 30.15 851 25.13 10.5 50.8 36 -3.8 25.2
10:15 1021 30.15 851 25.13 11.2 52.2 34 -4 24.7
10:20 1021 30.15 851 25.13 11.8 53.2 34 -3.4 25.8
10:25 1021 30.15 851 25.13 11.5 52.6 37 -2.8 26.9
10:30 1021 30.15 851 25.13 11.5 52.6 36 -2.9 26.8
10:35 1021 30.15 851 25.13 11.1 52.1 36 -3.2 26.3
10:40 1021 30.15 851 25.13 11.3 52.3 37 -3 26.7
10:45 1021 30.15 851 25.13 10.6 51.1 36 -3.8 25.1
10:50 1021 30.15 851 25.13 10.4 50.7 38 -3.2 26.2
10:55 1021 30.15 851 25.13 10.7 51.3 36 -3.7 25.3
11:00 1021 30.15 851 25.13 11.2 52.2 36 -3.4 25.8
11:05 1021 30.15 850 25.1 11.1 52 39 -2.4 27.7
11:10 1021 30.15 850 25.1 10.6 51.1 39 -2.8 27
11:15 1021 30.15 850 25.1 11.1 51.9 34 -4 24.8
11:20 1021 30.15 850 25.1 11 51.7 37 -3.3 26.1
11:25 1021 30.15 850 25.1 11.1 52 36 -3.5 25.7
11:30 1021 30.15 850 25.1 11.3 52.3 35 -3.5 25.7
11:35 1021 30.15 850 25.1 11.4 52.5 34 -4 24.8
11:40 1021 30.15 850 25.1 11.9 53.4 31 -4.5 23.9
11:45 1021 30.15 850 25.1 12.2 54 32 -3.8 25.2
11:50 1021 30.15 850 25.1 12.3 54.2 30 -4.8 23.3
11:55 1021 30.15 850 25.1 12.4 54.3 33 -3.4 25.9
12:00 1021 30.15 850 25.1 12.2 54 32 -4 24.8
12:05 1021 30.15 850 25.1 12.2 54 32 -4.1 24.6
12:10 1021 30.15 850 25.1 12.6 54.7 31 -3.9 25
12:15 1021 30.15 850 25.1 12.7 54.9 31 -4.1 24.6
12:20 1021 30.15 850 25.1 13.3 56 28 -4.5 23.9
12:25 1021 30.15 850 25.1 13.4 56.1 29 -4.2 24.5
12:30 1021 30.15 850 25.1 13.7 56.6 26 -5.2 22.7
12:35 1021 30.15 850 25.1 13.2 55.7 28 -4.8 23.3
12:40 1021 30.15 850 25.1 13.8 56.8 27 -4.9 23.2
12:45 1021 30.15 850 25.1 14 57.3 25 -5.5 22.1
12:50 1021 30.15 850 25.1 13.5 56.3 29 -4.2 24.4
12:55 1021 30.15 850 25.1 12.3 54.1 30 -5 23.1
13:00 1021 30.15 850 25.1 12.4 54.2 27 -6 21.3
13:05 1021 30.15 850 25.1 13.2 55.7 25 -6.3 20.6
13:10 1021 30.15 850 25.1 14.1 57.4 27 -4.5 23.9
13:15 1021 30.15 850 25.1 14 57.1 29 -3.7 25.3
13:20 1020 30.12 850 25.1 13.8 56.8 26 -5.2 22.6
13:25 1020 30.12 850 25.1 14.2 57.5 28 -3.8 25.2
13:30 1020 30.12 850 25.1 14.4 57.8 27 -4.1 24.6
13:35 1020 30.12 850 25.1 14.6 58.3 27 -4 24.9
13:40 1020 30.12 850 25.1 14.4 58 23 -6.6 20.2
13:45 1020 30.12 850 25.1 14.9 58.7 25 -5.2 22.7
13:50 1020 30.12 850 25.1 14.8 58.7 21 -7 19.3
13:55 1020 30.12 849 25.07 14.4 58 26 -4.9 23.2
14:00 1020 30.12 849 25.07 14.8 58.6 25 -5.2 22.6
14:05 1020 30.12 849 25.07 14.5 58.1 24 -5.8 21.5
14:10 1020 30.12 849 25.07 14.4 57.9 23 -6.4 20.4
14:15 1020 30.12 849 25.07 14.4 58 25 -5 23
14:20 1020 30.12 849 25.07 14.6 58.2 25 -5.1 22.8
14:25 1020 30.12 849 25.07 15 58.9 23 -6.1 21.1
14:30 1020 30.12 849 25.07 15 59 24 -5.2 22.7
14:35 1020 30.12 849 25.07 14 57.2 22 -7.2 19
14:40 1020 30.12 849 25.07 14.8 58.7 24 -5.4 22.3
14:45 1020 30.12 849 25.07 15.4 59.7 21 -6.7 20
14:50 1020 30.12 849 25.07 15.4 59.8 23 -5.7 21.8
14:55 1020 30.12 849 25.07 15.8 60.5 23 -5.1 22.8
15:00 1020 30.12 849 25.07 15.8 60.5 21 -6.2 20.8
15:05 1020 30.12 849 25.07 15.6 60.2 19 -7.7 18.2
15:10 1020 30.12 849 25.07 15.3 59.5 22 -6.4 20.5
15:15 1020 30.12 849 25.07 15.6 60 16 -10.1 13.8
15:20 1020 30.12 849 25.07 15.3 59.6 18 -8.5 16.7
15:25 1020 30.12 849 25.07 15.7 60.2 21 -6.7 19.9
15:30 1020 30.12 849 25.07 15.9 60.5 21 -6.5 20.3
15:35 1020 30.12 849 25.07 15.5 59.9 21 -6.6 20.2
15:40 1020 30.12 849 25.07 15.5 59.8 23 -5.6 21.9
15:45 1020 30.12 849 25.07 15.2 59.3 22 -6.1 20.9
15:50 1020 30.12 849 25.07 16 60.8 20 -6.6 20.1
15:55 1020 30.12 849 25.07 15.4 59.6 21 -6.6 20.2
16:00 1020 30.12 849 25.07 15.6 60 18 -8.6 16.5
16:05 1020 30.12 849 25.07 15.3 59.5 18 -8.8 16.2
16:10 1020 30.12 849 25.07 14.8 58.7 18 -9.2 15.4
16:15 1020 30.12 849 25.07 14.7 58.4 18 -9.3 15.3
16:20 1020 30.12 849 25.07 14.1 57.4 19 -9.2 15.4
16:25 1019 30.09 849 25.07 14.3 57.8 19 -8.7 16.4
16:30 1019 30.09 849 25.07 14.3 57.8 20 -8.2 17.2
16:35 1019 30.09 849 25.07 14.6 58.3 20 -8.2 17.2
16:40 1019 30.09 849 25.07 15.3 59.5 17 -9.7 14.6
16:45 1019 30.09 849 25.07 15.1 59.1 16 -10.7 12.8
16:50 1019 30.09 849 25.07 15.8 60.4 17 -9.2 15.5
16:55 1019 30.09 849 25.07 15.7 60.2 17 -9.3 15.2
17:00 1019 30.09 849 25.07 16 60.7 15 -10.7 12.8
17:05 1019 30.09 849 25.07 15.8 60.5 15 -11.1 12
17:10 1019 30.09 849 25.07 15.7 60.3 15 -11.1 12.1
17:15 1019 30.09 849 25.07 15.6 60.1 14 -11.5 11.3
17:20 1019 30.09 849 25.07 15.4 59.8 15 -10.8 12.6
17:25 1019 30.09 848 25.04 14.9 58.9 15 -11.2 11.9
17:30 1019 30.09 848 25.04 14.9 58.9 15 -11.7 10.9
17:35 1019 30.09 848 25.04 14.7 58.5 15 -12 10.4
17:40 1019 30.09 848 25.04 15 59 14 -11.9 10.5
17:45 1019 30.09 848 25.04 15.1 59.2 15 -11.3 11.7
17:50 1019 30.09 848 25.04 14.4 57.9 15 -11.6 11.1
17:55 1019 30.09 848 25.04 13.6 56.4 17 -10.9 12.4
18:00 1019 30.09 848 25.04 13.7 56.7 18 -10.5 13.2
18:05 1019 30.09 848 25.04 14.5 58.1 16 -10.7 12.7
18:10 1019 30.09 848 25.04 14.4 57.8 17 -10.6 12.9
18:15 1019 30.09 848 25.04 14.1 57.3 18 -10.1 13.9
18:20 1019 30.09 848 25.04 13.5 56.3 18 -10.1 13.8
18:25 1019 30.09 848 25.04 13.4 56.2 19 -9.8 14.4
18:30 1019 30.09 848 25.04 13.5 56.3 19 -9.4 15
18:35 1019 30.09 848 25.04 13.4 56 20 -9 15.8
18:40 1019 30.09 848 25.04 13.2 55.7 20 -9.5 14.9
18:45 1019 30.09 848 25.04 13.2 55.7 20 -9.3 15.2
18:50 1019 30.09 848 25.04 13.3 56 20 -9.3 15.2
18:55 1019 30.09 848 25.04 13.3 55.9 20 -9.4 15.1
19:00 1019 30.09 848 25.04 13.1 55.5 20 -9.2 15.5
19:05 1019 30.09 848 25.04 12.9 55.2 20 -9.3 15.2
19:10 1019 30.09 848 25.04 12.9 55.2 22 -8.5 16.8
19:15 1019 30.09 848 25.04 12.8 55 22 -8.2 17.2
19:20 1019 30.09 848 25.04 12.6 54.7 23 -8 17.7
19:25 1019 30.09 848 25.04 12.5 54.4 23 -7.9 17.8
19:30 1019 30.09 848 25.04 12.4 54.3 24 -7.8 17.9
19:35 1019 30.09 848 25.04 12.3 54.1 24 -7.5 18.5
19:40 1019 30.09 848 25.04 12.2 53.9 25 -7.1 19.3
19:45 1019 30.09 849 25.07 11.8 53.3 30 -5.2 22.7
19:50 1019 30.09 849 25.07 11.1 52 32 -4.8 23.3
19:55 1019 30.09 849 25.07 10.5 50.8 35 -4.2 24.4
20:00 1019 30.09 849 25.07 10 50 37 -4.1 24.6
20:05 1020 30.12 849 25.07 9.5 49.2 38 -4.1 24.6
20:10 1020 30.12 849 25.07 9.3 48.8 38 -4.2 24.5
20:15 1020 30.12 849 25.07 9.1 48.5 40 -3.9 25
20:20 1020 30.12 849 25.07 9 48.2 41 -3.5 25.8
20:25 1020 30.12 849 25.07 8.7 47.6 43 -3.1 26.4
20:30 1020 30.12 849 25.07 8.4 47.2 45 -2.9 26.7
20:35 1020 30.12 849 25.07 8.3 46.9 44 -3.3 26.1
20:40 1020 30.12 849 25.07 8.3 47 44 -3.3 26
20:45 1020 30.12 849 25.07 8.3 47 43 -3.4 25.9
20:50 1020 30.12 849 25.07 8.3 46.9 44 -3.2 26.2
20:55 1020 30.12 849 25.07 8.2 46.7 43 -3.5 25.6
21:00 1020 30.12 849 25.07 8.1 46.6 43 -3.6 25.5
21:05 1020 30.12 849 25.07 8.1 46.5 43 -3.6 25.5
21:10 1020 30.12 849 25.07 8.2 46.8 47 -2.5 27.5
21:15 1020 30.12 849 25.07 8.4 47.1 46 -2.4 27.7
21:20 1020 30.12 849 25.07 8.4 47.1 46 -2.6 27.4
21:25 1020 30.12 849 25.07 8.5 47.3 46 -2.3 27.8
21:30 1020 30.12 849 25.07 8.3 46.9 48 -1.9 28.5
21:35 1020 30.12 849 25.07 7.9 46.3 49 -2.2 28.1
21:40 1020 30.12 849 25.07 7.8 46.1 49 -2.1 28.2
21:45 1020 30.12 849 25.07 7.8 46 50 -1.9 28.6
21:50 1020 30.12 849 25.07 7.6 45.6 48 -2.6 27.3
21:55 1020 30.12 849 25.07 7.5 45.5 46 -3.5 25.8
22:00 1020 30.12 849 25.07 7.5 45.4 47 -3 26.6
22:05 1020 30.12 849 25.07 7.4 45.3 46 -3.5 25.7
22:10 1020 30.12 849 25.07 7.3 45.2 46 -3.6 25.5
22:15 1020 30.12 850 25.1 7.2 45 46 -3.5 25.7
22:20 1020 30.12 850 25.1 7.2 44.9 46 -3.8 25.2
22:25 1020 30.12 850 25.1 7.3 45.2 46 -3.6 25.6
22:30 1020 30.12 849 25.07 7.4 45.4 47 -3.2 26.2
22:35 1020 30.12 849 25.07 7.4 45.2 50 -2.3 27.9
22:40 1020 30.12 849 25.07 7.2 45 51 -2.1 28.2
22:45 1020 30.12 849 25.07 7.1 44.8 52 -2.2 28.1
22:50 1020 30.12 849 25.07 7 44.7 54 -1.7 28.9
22:55 1020 30.12 850 25.1 6.8 44.3 53 -2 28.3
23:00 1020 30.12 850 25.1 6.7 44 52 -2.4 27.6
23:05 1020 30.12 850 25.1 6.6 43.9 50 -3 26.6
23:10 1020 30.12 849 25.07 6.6 43.8 51 -2.8 27
23:15 1020 30.12 849 25.07 6.6 43.8 51 -2.9 26.7
23:20 1020 30.12 849 25.07 6.5 43.7 53 -2.3 27.8
23:25 1020 30.12 849 25.07 6.4 43.5 54 -2.3 27.9
23:30 1020 30.12 849 25.07 6.3 43.4 53 -2.5 27.5
23:35 1020 30.12 849 25.07 6.2 43.2 55 -2.2 28
23:40 1020 30.12 849 25.07 6.1 43 55 -2.2 28
23:45 1020 30.12 850 25.1 6 42.8 54 -2.6 27.2
23:50 1020 30.12 849 25.07 6.1 42.9 53 -2.8 26.9
23:55 1020 30.12 850 25.1 6.1 43 50 -3.5 25.8
24:00 1020 30.12 850 25.1 6.4 43.5 50 -3.3 26